createdAt,value
2023-04-30T00:00:39.108Z,15.30
2023-04-30T00:03:05.681Z,15.40
2023-04-30T00:05:32.215Z,15.50
2023-04-30T00:07:58.713Z,15.50
2023-04-30T00:10:25.198Z,15.50
2023-04-30T00:12:51.682Z,15.30
2023-04-30T00:15:18.158Z,15.40
2023-04-30T00:17:44.696Z,15.40
2023-04-30T00:20:11.390Z,15.50
2023-04-30T00:22:37.918Z,15.60
2023-04-30T00:25:04.385Z,15.50
2023-04-30T00:27:30.877Z,15.50
2023-04-30T00:29:57.354Z,15.50
2023-04-30T00:32:23.923Z,15.60
2023-04-30T00:34:50.464Z,15.60
2023-04-30T00:37:16.954Z,15.60
2023-04-30T00:39:43.434Z,15.60
2023-04-30T00:42:09.942Z,15.60
2023-04-30T00:44:36.399Z,15.60
2023-04-30T00:47:02.883Z,15.50
2023-04-30T00:49:29.350Z,15.50
2023-04-30T00:51:55.864Z,15.60
2023-04-30T00:54:22.341Z,15.50
2023-04-30T00:56:48.865Z,15.50
2023-04-30T00:59:15.360Z,15.60
2023-04-30T01:01:41.982Z,15.60
2023-04-30T01:04:08.631Z,15.50
2023-04-30T01:06:35.149Z,15.50
2023-04-30T01:09:01.646Z,15.50
2023-04-30T01:11:28.121Z,15.40
2023-04-30T01:13:54.597Z,15.40
2023-04-30T01:16:21.074Z,15.40
2023-04-30T01:18:47.677Z,15.40
2023-04-30T01:21:14.267Z,15.40
2023-04-30T01:23:40.728Z,15.40
2023-04-30T01:26:07.200Z,15.40
2023-04-30T01:28:33.690Z,15.50
2023-04-30T01:31:00.229Z,15.40
2023-04-30T01:33:26.794Z,15.50
2023-04-30T01:35:53.273Z,15.40
2023-04-30T01:38:19.753Z,15.50
2023-04-30T01:40:46.220Z,15.40
2023-04-30T01:43:12.700Z,15.40
2023-04-30T01:45:39.170Z,15.40
2023-04-30T01:48:05.698Z,15.40
2023-04-30T01:50:32.235Z,15.50
2023-04-30T01:52:58.723Z,15.50
2023-04-30T01:55:25.213Z,15.50
2023-04-30T01:57:53.431Z,15.40
2023-04-30T02:00:19.921Z,15.40
2023-04-30T02:02:46.488Z,15.40
2023-04-30T02:05:13.000Z,15.40
2023-04-30T02:07:39.519Z,15.50
2023-04-30T02:10:05.999Z,15.50
2023-04-30T02:12:32.524Z,15.40
2023-04-30T02:14:59.025Z,15.30
2023-04-30T02:17:25.521Z,15.40
2023-04-30T02:19:53.589Z,15.40
2023-04-30T02:22:20.210Z,15.40
2023-04-30T02:24:46.668Z,15.40
2023-04-30T02:27:13.173Z,15.40
2023-04-30T02:29:39.647Z,15.40
2023-04-30T02:32:06.149Z,15.40
2023-04-30T02:34:32.651Z,15.40
2023-04-30T02:36:59.133Z,15.40
2023-04-30T02:39:25.612Z,15.40
2023-04-30T02:41:52.090Z,15.30
2023-04-30T02:44:18.583Z,15.40
2023-04-30T02:46:45.056Z,15.40
2023-04-30T02:49:11.556Z,15.40
2023-04-30T02:51:38.043Z,15.40
2023-04-30T02:54:04.537Z,15.40
2023-04-30T02:56:31.022Z,15.40
2023-04-30T02:58:57.510Z,15.40
2023-04-30T03:01:24.051Z,15.40
2023-04-30T03:03:50.533Z,15.30
2023-04-30T03:06:17.085Z,15.40
2023-04-30T03:08:43.644Z,15.40
2023-04-30T03:11:10.130Z,15.40
2023-04-30T03:13:36.621Z,15.40
2023-04-30T03:16:03.120Z,15.50
2023-04-30T03:18:29.642Z,15.40
2023-04-30T03:20:56.096Z,15.40
2023-04-30T03:23:22.613Z,15.40
2023-04-30T03:25:49.100Z,15.40
2023-04-30T03:28:15.619Z,15.40
2023-04-30T03:30:42.076Z,15.40
2023-04-30T03:33:08.672Z,15.30
2023-04-30T03:35:35.199Z,15.40
2023-04-30T03:38:01.711Z,15.30
2023-04-30T03:40:28.201Z,15.30
2023-04-30T03:42:54.704Z,15.30
2023-04-30T03:45:21.180Z,15.30
2023-04-30T03:47:47.728Z,15.30
2023-04-30T03:50:14.229Z,15.30
2023-04-30T03:52:40.694Z,15.30
2023-04-30T03:55:07.162Z,15.30
2023-04-30T03:57:33.656Z,15.30
2023-04-30T04:00:00.184Z,15.30
2023-04-30T04:02:26.745Z,15.30
2023-04-30T04:04:53.262Z,15.40
2023-04-30T04:07:19.739Z,15.30
2023-04-30T04:09:47.550Z,15.30
2023-04-30T04:12:14.021Z,15.10
2023-04-30T04:14:40.508Z,15.20
2023-04-30T04:17:06.973Z,14.90
2023-04-30T04:19:33.453Z,15.00
2023-04-30T04:21:59.933Z,15.00
2023-04-30T04:24:26.419Z,15.00
2023-04-30T04:26:52.884Z,15.00
2023-04-30T04:29:19.367Z,15.20
2023-04-30T04:31:45.886Z,15.30
2023-04-30T04:34:12.366Z,15.40
2023-04-30T04:36:41.554Z,15.50
2023-04-30T04:39:08.043Z,15.50
2023-04-30T04:41:34.515Z,15.50
2023-04-30T04:44:01.018Z,15.50
2023-04-30T04:46:27.518Z,15.60
2023-04-30T04:48:54.047Z,15.60
2023-04-30T04:51:20.515Z,15.70
2023-04-30T04:53:47.024Z,15.80
2023-04-30T04:56:13.521Z,16.00
2023-04-30T04:58:40.010Z,15.90
2023-04-30T05:01:06.506Z,15.90
2023-04-30T05:03:33.068Z,16.00
2023-04-30T05:05:59.592Z,16.00
2023-04-30T05:08:26.080Z,16.00
2023-04-30T05:10:52.546Z,16.10
2023-04-30T05:13:19.031Z,16.20
2023-04-30T05:15:45.502Z,16.30
2023-04-30T05:18:11.976Z,16.40
2023-04-30T05:20:38.456Z,16.50
2023-04-30T05:23:04.940Z,16.50
2023-04-30T05:25:31.412Z,16.40
2023-04-30T05:27:57.880Z,16.40
2023-04-30T05:30:24.361Z,16.50
2023-04-30T05:32:51.069Z,16.50
2023-04-30T05:35:17.612Z,16.60
2023-04-30T05:37:44.107Z,16.70
2023-04-30T05:40:10.592Z,16.70
2023-04-30T05:42:37.090Z,16.70
2023-04-30T05:45:03.577Z,16.80
2023-04-30T05:47:30.069Z,16.70
2023-04-30T05:49:56.700Z,16.80
2023-04-30T05:52:23.325Z,16.80
2023-04-30T05:54:50.136Z,16.80
2023-04-30T05:57:16.731Z,16.90
2023-04-30T05:59:43.215Z,16.80
2023-04-30T06:02:09.873Z,16.90
2023-04-30T06:04:36.448Z,16.90
2023-04-30T06:07:02.944Z,17.00
2023-04-30T06:09:29.438Z,16.90
2023-04-30T06:11:59.840Z,17.00
2023-04-30T06:14:26.333Z,17.00
2023-04-30T06:16:52.862Z,17.10
2023-04-30T06:19:19.427Z,17.10
2023-04-30T06:21:45.920Z,17.20
2023-04-30T06:24:12.433Z,17.00
2023-04-30T06:26:39.078Z,17.20
2023-04-30T06:29:05.597Z,17.20
2023-04-30T06:31:32.334Z,17.10
2023-04-30T06:33:58.881Z,17.20
2023-04-30T06:36:25.367Z,17.20
2023-04-30T06:38:51.835Z,17.20
2023-04-30T06:41:18.354Z,17.30
2023-04-30T06:43:44.823Z,17.30
2023-04-30T06:46:11.359Z,17.30
2023-04-30T06:48:37.836Z,17.40
2023-04-30T06:51:04.309Z,17.30
2023-04-30T06:53:33.605Z,17.40
2023-04-30T06:56:00.115Z,17.50
2023-04-30T06:58:26.668Z,17.50
2023-04-30T07:00:53.166Z,17.60
2023-04-30T07:03:19.709Z,17.60
2023-04-30T07:05:46.244Z,17.50
2023-04-30T07:08:12.718Z,17.50
2023-04-30T07:10:39.205Z,17.50
2023-04-30T07:13:05.696Z,17.60
2023-04-30T07:15:32.296Z,17.60
2023-04-30T07:17:59.670Z,17.50
2023-04-30T07:20:26.229Z,17.50
2023-04-30T07:22:52.684Z,17.40
2023-04-30T07:25:19.189Z,17.50
2023-04-30T07:27:45.669Z,17.60
2023-04-30T07:30:12.178Z,17.70
2023-04-30T07:32:38.719Z,17.70
2023-04-30T07:35:05.304Z,17.80
2023-04-30T07:37:33.529Z,17.90
2023-04-30T07:40:01.506Z,17.80
2023-04-30T07:42:27.990Z,17.80
2023-04-30T07:44:54.453Z,17.90
2023-04-30T07:47:20.950Z,17.90
2023-04-30T07:49:47.449Z,17.80
2023-04-30T07:52:13.937Z,17.80
2023-04-30T07:54:40.416Z,17.80
2023-04-30T07:57:06.920Z,17.80
2023-04-30T07:59:33.388Z,17.90
2023-04-30T08:01:59.892Z,17.90
2023-04-30T08:04:26.583Z,17.70
2023-04-30T08:06:53.192Z,17.80
2023-04-30T08:09:19.690Z,17.90
2023-04-30T08:11:46.174Z,17.90
2023-04-30T08:14:12.663Z,17.90
2023-04-30T08:16:39.179Z,18.00
2023-04-30T08:19:05.748Z,18.10
2023-04-30T08:21:32.236Z,18.10
2023-04-30T08:23:58.711Z,18.10
2023-04-30T08:26:25.207Z,18.00
2023-04-30T08:28:51.700Z,18.00
2023-04-30T08:31:18.263Z,18.00
2023-04-30T08:33:44.774Z,18.00
2023-04-30T08:36:11.273Z,17.90
2023-04-30T08:38:37.741Z,17.90
2023-04-30T08:41:04.232Z,17.90
2023-04-30T08:43:30.697Z,17.90
2023-04-30T08:45:57.169Z,17.80
2023-04-30T08:48:23.682Z,17.80
2023-04-30T08:50:50.215Z,17.80
2023-04-30T08:53:16.708Z,17.80
2023-04-30T08:55:43.178Z,17.80
2023-04-30T08:58:09.666Z,17.80
2023-04-30T09:00:36.135Z,17.60
2023-04-30T09:03:02.713Z,17.80
2023-04-30T09:05:29.209Z,17.70
2023-04-30T09:08:03.104Z,17.70
2023-04-30T09:10:30.374Z,17.70
2023-04-30T09:12:56.849Z,17.70
2023-04-30T09:15:23.343Z,17.70
2023-04-30T09:17:49.860Z,17.70
2023-04-30T09:20:16.355Z,17.70
2023-04-30T09:22:42.858Z,17.70
2023-04-30T09:25:09.355Z,17.60
2023-04-30T09:27:35.896Z,17.60
2023-04-30T09:30:02.362Z,17.60
2023-04-30T09:32:28.924Z,17.60
2023-04-30T09:34:55.428Z,17.60
2023-04-30T09:37:21.904Z,17.60
2023-04-30T09:39:48.380Z,17.60
2023-04-30T09:42:14.870Z,17.60
2023-04-30T09:44:41.337Z,17.50
2023-04-30T09:47:07.963Z,17.60
2023-04-30T09:49:34.514Z,17.60
2023-04-30T09:52:01.101Z,17.60
2023-04-30T09:54:27.661Z,17.60
2023-04-30T09:56:54.153Z,17.60
2023-04-30T09:59:20.635Z,17.50
2023-04-30T10:01:47.109Z,17.50
2023-04-30T10:04:13.614Z,17.50
2023-04-30T10:06:40.224Z,17.50
2023-04-30T10:09:06.724Z,17.50
2023-04-30T10:11:33.200Z,17.50
2023-04-30T10:13:59.696Z,17.50
2023-04-30T10:16:26.214Z,17.50
2023-04-30T10:18:52.731Z,17.50
2023-04-30T10:21:19.220Z,17.50
2023-04-30T10:23:45.712Z,17.50
2023-04-30T10:26:12.178Z,17.50
2023-04-30T10:28:38.654Z,17.50
2023-04-30T10:31:05.127Z,17.50
2023-04-30T10:33:31.622Z,17.50
2023-04-30T10:35:58.111Z,17.50
2023-04-30T10:38:24.584Z,17.50
2023-04-30T10:40:51.073Z,17.50
2023-04-30T10:43:17.554Z,17.50
2023-04-30T10:45:44.092Z,17.50
2023-04-30T10:48:10.737Z,17.50
2023-04-30T10:50:37.267Z,17.50
2023-04-30T10:53:03.785Z,17.50
2023-04-30T10:55:30.282Z,17.50
2023-04-30T10:57:57.897Z,17.50
2023-04-30T11:00:24.393Z,17.50
2023-04-30T11:02:50.888Z,17.50
2023-04-30T11:05:17.548Z,17.50
2023-04-30T11:07:44.149Z,17.50
2023-04-30T11:10:10.660Z,17.50
2023-04-30T11:12:37.171Z,17.50
2023-04-30T11:15:03.656Z,17.50
2023-04-30T11:17:30.171Z,17.50
2023-04-30T11:19:56.972Z,17.40
2023-04-30T11:22:23.577Z,17.50
2023-04-30T11:24:50.044Z,17.40
2023-04-30T11:27:17.909Z,17.50
2023-04-30T11:29:47.953Z,17.50
2023-04-30T11:32:14.473Z,17.50
2023-04-30T11:34:40.966Z,17.50
2023-04-30T11:37:07.468Z,17.50
2023-04-30T11:39:33.940Z,17.50
2023-04-30T11:42:00.423Z,17.50
2023-04-30T11:44:26.909Z,17.50
2023-04-30T11:46:53.465Z,17.50
2023-04-30T11:49:20.034Z,17.50
2023-04-30T11:51:46.508Z,17.50
2023-04-30T11:54:13.002Z,17.50
2023-04-30T11:56:41.333Z,17.50
2023-04-30T11:59:08.033Z,17.50
2023-04-30T12:01:34.538Z,17.50
2023-04-30T12:04:01.134Z,17.50
2023-04-30T12:06:27.931Z,17.50
2023-04-30T12:08:54.596Z,17.50
2023-04-30T12:11:21.077Z,17.50
2023-04-30T12:13:47.562Z,17.50
2023-04-30T12:16:14.064Z,17.50
2023-04-30T12:18:40.577Z,17.50
2023-04-30T12:21:07.184Z,17.50
2023-04-30T12:23:33.676Z,17.50
2023-04-30T12:26:00.155Z,17.50
2023-04-30T12:28:26.684Z,17.50
2023-04-30T12:30:53.145Z,17.50
2023-04-30T12:33:19.719Z,17.50
2023-04-30T12:35:46.222Z,17.50
2023-04-30T12:38:12.722Z,17.50
2023-04-30T12:40:39.199Z,17.50
2023-04-30T12:43:05.678Z,17.50
2023-04-30T12:45:32.154Z,17.50
2023-04-30T12:47:58.704Z,17.50
2023-04-30T12:50:25.231Z,17.50
2023-04-30T12:52:51.723Z,17.60
2023-04-30T12:55:18.230Z,17.50
2023-04-30T12:57:44.720Z,17.50
2023-04-30T13:00:11.204Z,17.50
2023-04-30T13:02:37.808Z,17.50
2023-04-30T13:05:04.344Z,17.50
2023-04-30T13:07:30.817Z,17.50
2023-04-30T13:09:57.576Z,17.50
2023-04-30T13:12:24.233Z,17.50
2023-04-30T13:14:50.737Z,17.50
2023-04-30T13:17:17.203Z,17.50
2023-04-30T13:19:43.686Z,17.60
2023-04-30T13:22:10.184Z,17.60
2023-04-30T13:24:36.675Z,17.50
2023-04-30T13:27:05.033Z,17.60
2023-04-30T13:29:31.539Z,17.50
2023-04-30T13:31:58.024Z,17.50
2023-04-30T13:34:24.523Z,17.60
2023-04-30T13:36:50.995Z,17.50
2023-04-30T13:39:17.479Z,17.60
2023-04-30T13:41:43.955Z,17.60
2023-04-30T13:44:10.473Z,17.50
2023-04-30T13:46:36.976Z,17.60
2023-04-30T13:49:03.499Z,17.50
2023-04-30T13:51:29.989Z,17.60
2023-04-30T13:53:56.474Z,17.60
2023-04-30T13:56:22.971Z,17.60
2023-04-30T13:58:49.468Z,17.60
2023-04-30T14:01:15.973Z,17.60
2023-04-30T14:03:42.607Z,17.60
2023-04-30T14:06:09.248Z,17.60
2023-04-30T14:08:35.793Z,17.50
2023-04-30T14:11:06.065Z,17.50
2023-04-30T14:13:32.563Z,17.50
2023-04-30T14:15:59.116Z,17.50
2023-04-30T14:18:25.619Z,17.60
2023-04-30T14:20:52.115Z,17.60
2023-04-30T14:23:18.606Z,17.60
2023-04-30T14:25:45.081Z,17.60
2023-04-30T14:28:11.572Z,17.60
2023-04-30T14:30:38.085Z,17.50
2023-04-30T14:33:04.586Z,17.60
2023-04-30T14:35:31.077Z,17.60
2023-04-30T14:37:57.574Z,17.60
2023-04-30T14:40:24.079Z,17.60
2023-04-30T14:42:50.690Z,17.60
2023-04-30T14:45:17.258Z,17.70
2023-04-30T14:47:43.929Z,17.70
2023-04-30T14:50:10.558Z,17.70
2023-04-30T14:52:37.043Z,17.70
2023-04-30T14:55:03.535Z,17.70
2023-04-30T14:57:30.015Z,17.70
2023-04-30T14:59:56.803Z,17.70
2023-04-30T15:02:23.425Z,17.70
2023-04-30T15:04:49.994Z,17.70
2023-04-30T15:07:16.475Z,17.70
2023-04-30T15:09:43.063Z,17.80
2023-04-30T15:12:09.555Z,17.80
2023-04-30T15:14:36.024Z,17.70
2023-04-30T15:17:02.506Z,17.80
2023-04-30T15:19:28.985Z,17.70
2023-04-30T15:21:55.471Z,17.70
2023-04-30T15:24:21.976Z,17.70
2023-04-30T15:26:48.481Z,17.80
2023-04-30T15:29:14.976Z,17.80
2023-04-30T15:31:41.472Z,17.80
2023-04-30T15:34:08.022Z,17.80
2023-04-30T15:36:34.533Z,17.80
2023-04-30T15:39:01.027Z,17.90
2023-04-30T15:41:27.525Z,17.80
2023-04-30T15:43:53.998Z,17.80
2023-04-30T15:46:20.522Z,17.80
2023-04-30T15:48:47.068Z,17.90
2023-04-30T15:51:13.556Z,17.90
2023-04-30T15:53:40.063Z,17.90
2023-04-30T15:56:06.574Z,17.90
2023-04-30T15:58:33.054Z,17.80
2023-04-30T16:00:59.534Z,17.90
2023-04-30T16:03:26.193Z,17.80
2023-04-30T16:05:52.765Z,17.80
2023-04-30T16:08:19.250Z,17.90
2023-04-30T16:10:45.732Z,17.80
2023-04-30T16:13:12.228Z,17.90
2023-04-30T16:15:38.710Z,17.80
2023-04-30T16:18:05.238Z,17.90
2023-04-30T16:20:31.756Z,17.90
2023-04-30T16:22:58.257Z,17.80
2023-04-30T16:25:24.746Z,17.90
2023-04-30T16:27:51.242Z,17.80
2023-04-30T16:30:17.746Z,17.90
2023-04-30T16:32:44.415Z,17.80
2023-04-30T16:35:11.096Z,17.80
2023-04-30T16:37:37.584Z,17.80
2023-04-30T16:40:04.052Z,17.80
2023-04-30T16:42:30.542Z,17.80
2023-04-30T16:44:57.017Z,17.80
2023-04-30T16:47:23.544Z,17.80
2023-04-30T16:49:50.042Z,17.80
2023-04-30T16:52:16.541Z,17.80
2023-04-30T16:54:43.020Z,17.90
2023-04-30T16:57:09.501Z,17.80
2023-04-30T16:59:35.987Z,17.80
2023-04-30T17:02:02.469Z,17.80
2023-04-30T17:04:28.949Z,17.80
2023-04-30T17:06:55.447Z,17.80
2023-04-30T17:09:21.944Z,17.80
2023-04-30T17:11:48.459Z,17.80
2023-04-30T17:14:18.277Z,17.90
2023-04-30T17:16:44.759Z,17.80
2023-04-30T17:19:11.244Z,17.90
2023-04-30T17:21:37.763Z,17.80
2023-04-30T17:24:04.240Z,17.80
2023-04-30T17:26:30.749Z,17.80
2023-04-30T17:28:57.238Z,17.80
2023-04-30T17:31:23.780Z,17.80
2023-04-30T17:33:50.292Z,17.80
2023-04-30T17:36:16.791Z,17.80
2023-04-30T17:38:43.292Z,17.80
2023-04-30T17:41:09.810Z,17.80
2023-04-30T17:43:42.262Z,17.80
2023-04-30T17:46:08.878Z,17.80
2023-04-30T17:48:35.402Z,17.80
2023-04-30T17:51:01.908Z,17.80
2023-04-30T17:53:28.400Z,17.80
2023-04-30T17:55:54.884Z,17.70
2023-04-30T17:58:21.398Z,17.70
2023-04-30T18:00:47.888Z,17.70
2023-04-30T18:03:14.474Z,17.70
2023-04-30T18:05:41.002Z,17.70
2023-04-30T18:08:07.492Z,17.70
2023-04-30T18:10:33.980Z,17.70
2023-04-30T18:13:00.463Z,17.70
2023-04-30T18:15:26.952Z,17.60
2023-04-30T18:17:53.454Z,17.70
2023-04-30T18:20:19.927Z,17.70
2023-04-30T18:22:46.421Z,17.60
2023-04-30T18:25:12.902Z,17.60
2023-04-30T18:27:39.401Z,17.70
2023-04-30T18:30:05.884Z,17.60
2023-04-30T18:32:32.429Z,17.60
2023-04-30T18:34:58.924Z,17.60
2023-04-30T18:37:25.419Z,17.50
2023-04-30T18:39:51.908Z,17.50
2023-04-30T18:42:18.410Z,17.50
2023-04-30T18:44:44.907Z,17.50
2023-04-30T18:47:11.416Z,17.50
2023-04-30T18:49:37.874Z,17.50
2023-04-30T18:52:04.347Z,17.50
2023-04-30T18:54:30.836Z,17.40
2023-04-30T18:56:57.296Z,17.40
2023-04-30T18:59:23.807Z,17.40
2023-04-30T19:01:50.439Z,17.40
2023-04-30T19:04:16.990Z,17.40
2023-04-30T19:06:43.599Z,17.40
2023-04-30T19:09:10.167Z,17.40
2023-04-30T19:11:36.657Z,17.30
2023-04-30T19:14:03.146Z,17.30
2023-04-30T19:16:29.651Z,17.40
2023-04-30T19:18:56.166Z,17.40
2023-04-30T19:21:22.647Z,17.30
2023-04-30T19:23:49.151Z,17.40
2023-04-30T19:26:15.628Z,17.30
2023-04-30T19:28:42.118Z,17.30
2023-04-30T19:31:11.480Z,17.40
2023-04-30T19:33:38.097Z,17.30
2023-04-30T19:36:04.584Z,17.30
2023-04-30T19:38:31.068Z,17.30
2023-04-30T19:40:57.534Z,17.30
2023-04-30T19:43:24.034Z,17.30
2023-04-30T19:45:50.564Z,17.40
2023-04-30T19:48:17.124Z,17.30
2023-04-30T19:50:43.649Z,17.30
2023-04-30T19:53:10.158Z,17.30
2023-04-30T19:55:36.637Z,17.30
2023-04-30T19:58:03.137Z,17.30
2023-04-30T20:00:29.626Z,17.30
2023-04-30T20:02:56.184Z,17.30
2023-04-30T20:05:22.703Z,17.30
2023-04-30T20:07:49.218Z,17.30
2023-04-30T20:10:15.688Z,17.30
2023-04-30T20:12:42.157Z,17.30
2023-04-30T20:15:08.654Z,17.30
2023-04-30T20:17:35.163Z,17.30
2023-04-30T20:20:01.669Z,17.30
2023-04-30T20:22:28.231Z,17.10
2023-04-30T20:24:54.785Z,17.30
2023-04-30T20:27:21.258Z,17.30
2023-04-30T20:29:47.758Z,17.30
2023-04-30T20:32:14.245Z,17.30
2023-04-30T20:34:40.725Z,17.30
2023-04-30T20:37:07.185Z,17.30
2023-04-30T20:39:33.675Z,17.30
2023-04-30T20:42:00.162Z,17.20
2023-04-30T20:44:26.685Z,17.30
2023-04-30T20:46:53.205Z,17.30
2023-04-30T20:49:19.730Z,17.30
2023-04-30T20:51:46.241Z,17.30
2023-04-30T20:54:12.764Z,17.30
2023-04-30T20:56:39.260Z,17.20
2023-04-30T20:59:05.756Z,17.20
2023-04-30T21:01:32.307Z,17.30
2023-04-30T21:03:58.831Z,17.30
2023-04-30T21:06:25.308Z,17.30
2023-04-30T21:08:51.882Z,17.30
2023-04-30T21:11:18.364Z,17.20
2023-04-30T21:13:44.858Z,17.20
2023-04-30T21:16:11.377Z,17.30
2023-04-30T21:18:37.863Z,17.20
2023-04-30T21:21:04.361Z,17.20
2023-04-30T21:23:30.852Z,17.20
2023-04-30T21:25:57.334Z,17.20
2023-04-30T21:28:23.807Z,17.20
2023-04-30T21:30:50.298Z,17.20
2023-04-30T21:33:16.829Z,17.20
2023-04-30T21:35:43.327Z,17.20
2023-04-30T21:38:09.811Z,17.20
2023-04-30T21:40:36.285Z,17.20
2023-04-30T21:43:02.779Z,17.20
2023-04-30T21:45:29.278Z,17.20
2023-04-30T21:47:55.877Z,17.20
2023-04-30T21:50:22.398Z,17.10
2023-04-30T21:52:48.875Z,17.20
2023-04-30T21:55:15.382Z,17.10
2023-04-30T21:57:41.868Z,17.10
2023-04-30T22:00:08.374Z,17.10
2023-04-30T22:02:34.973Z,17.20
2023-04-30T22:05:01.559Z,17.20
2023-04-30T22:07:28.055Z,17.10
2023-04-30T22:09:54.703Z,17.10
2023-04-30T22:12:21.378Z,17.10
2023-04-30T22:14:47.884Z,17.10
2023-04-30T22:17:14.384Z,17.10
2023-04-30T22:19:40.858Z,17.10
2023-04-30T22:22:07.351Z,17.10
2023-04-30T22:24:33.823Z,17.10
2023-04-30T22:27:00.300Z,17.10
2023-04-30T22:29:26.759Z,17.10
2023-04-30T22:31:53.279Z,17.10
2023-04-30T22:34:19.786Z,17.10
2023-04-30T22:36:46.297Z,17.10
2023-04-30T22:39:12.778Z,17.10
2023-04-30T22:41:42.479Z,17.10
2023-04-30T22:44:08.954Z,17.10
2023-04-30T22:46:35.481Z,17.00
2023-04-30T22:49:01.994Z,17.00
2023-04-30T22:51:28.473Z,17.00
2023-04-30T22:53:54.939Z,17.10
2023-04-30T22:56:21.433Z,17.00
2023-04-30T22:58:47.915Z,17.00
2023-04-30T23:01:14.545Z,17.00
2023-04-30T23:03:41.079Z,17.00
2023-04-30T23:06:07.742Z,17.00
2023-04-30T23:08:34.258Z,17.00
2023-04-30T23:11:00.769Z,17.00
2023-04-30T23:13:27.284Z,17.00
2023-04-30T23:15:53.779Z,17.00
2023-04-30T23:18:20.253Z,17.00
2023-04-30T23:20:46.754Z,17.00
2023-04-30T23:23:13.239Z,17.00
2023-04-30T23:25:39.719Z,17.00
2023-04-30T23:28:06.184Z,17.00
2023-04-30T23:30:32.670Z,17.00
2023-04-30T23:32:59.201Z,17.00
2023-04-30T23:35:25.726Z,17.00
2023-04-30T23:37:52.223Z,17.00
2023-04-30T23:40:18.700Z,17.00
2023-04-30T23:42:45.191Z,17.00
2023-04-30T23:45:11.669Z,17.00
2023-04-30T23:47:42.573Z,17.00
2023-04-30T23:50:09.094Z,17.00
2023-04-30T23:52:35.579Z,17.00
2023-04-30T23:55:02.048Z,17.00
2023-04-30T23:57:28.543Z,17.00
2023-04-30T23:59:55.118Z,17.00
